Time;durP1;ratioP1;P1;durP2;ratioP2;P2;SDS_P1;SDS_P2;PMS_P1;PMS_P2;Temp;Humidity;BMP_temperature;BMP_pressure;BME280_temperature;BME280_humidity;BME280_pressure;Samples;Min_cycle;Max_cycle;Signal;HPM_P1;HPM_P2
2022/01/02 00:01:36;;;;;;;16.08;9.13;;;4.80;99.90;;;;;;5105795;28;20066;-36
2022/01/02 00:04:31;;;;;;;13.65;8.82;;;5.70;99.90;;;;;;5108323;28;20063;-36
2022/01/02 00:07:25;;;;;;;14.57;8.68;;;4.80;99.90;;;;;;5111037;28;20039;-36
2022/01/02 00:10:20;;;;;;;12.30;8.35;;;4.80;99.90;;;;;;5112818;28;20070;-35
2022/01/02 00:13:20;;;;;;;12.68;8.27;;;4.80;99.90;;;;;;5109620;28;20055;-36
2022/01/02 00:16:15;;;;;;;14.32;8.40;;;4.80;99.90;;;;;;5098469;28;20085;-36
2022/01/02 00:19:29;;;;;;;16.65;9.15;;;4.80;99.90;;;;;;5105990;28;20054;-36
2022/01/02 00:22:36;;;;;;;16.15;9.82;;;4.80;99.90;;;;;;5101559;28;20130;-36
2022/01/02 00:25:32;;;;;;;17.77;9.70;;;4.80;99.90;;;;;;5109075;28;20074;-37
2022/01/02 00:28:23;;;;;;;16.50;9.18;;;4.70;99.90;;;;;;5105974;28;20054;-36
2022/01/02 00:31:15;;;;;;;14.55;8.93;;;4.70;99.90;;;;;;5114847;28;20423;-37
2022/01/02 00:34:08;;;;;;;13.93;8.68;;;4.70;99.90;;;;;;5078299;28;20057;-36
2022/01/02 00:36:59;;;;;;;15.52;8.82;;;4.70;99.90;;;;;;5094188;28;20143;-36
2022/01/02 00:39:50;;;;;;;14.60;7.85;;;4.60;99.90;;;;;;5099581;28;20090;-36
2022/01/02 00:42:42;;;;;;;16.88;8.70;;;4.70;99.90;;;;;;5111806;28;20546;-36
2022/01/02 00:45:40;;;;;;;16.15;8.48;;;4.70;99.90;;;;;;5102012;28;20054;-36
2022/01/02 00:48:34;;;;;;;12.73;8.05;;;4.70;99.90;;;;;;5133101;28;20078;-37
2022/01/02 00:51:34;;;;;;;12.20;6.63;;;4.70;99.90;;;;;;5129482;28;20058;-36
2022/01/02 00:54:29;;;;;;;9.35;6.53;;;4.70;99.90;;;;;;5117071;28;20063;-37
2022/01/02 00:57:28;;;;;;;11.52;6.63;;;4.70;99.90;;;;;;5114784;28;20057;-36
2022/01/02 01:00:20;;;;;;;14.65;8.43;;;4.70;99.90;;;;;;5110107;28;20531;-36
2022/01/02 01:03:18;;;;;;;9.48;5.75;;;4.70;99.90;;;;;;5111238;28;20057;-36
2022/01/02 01:06:10;;;;;;;10.32;5.78;;;4.70;99.90;;;;;;5113360;28;20840;-37
2022/01/02 01:09:05;;;;;;;10.15;5.72;;;4.70;99.90;;;;;;5112190;28;20331;-36
2022/01/02 01:11:59;;;;;;;;;;;4.60;99.90;;;;;;5107935;28;20086;-36
2022/01/02 01:14:51;;;;;;;10.20;5.50;;;4.50;99.90;;;;;;5100481;28;19930;-36
2022/01/02 01:17:42;;;;;;;8.88;5.05;;;4.10;99.90;;;;;;5113018;28;20062;-36
2022/01/02 01:20:41;;;;;;;7.80;4.97;;;4.60;99.90;;;;;;5116288;28;20077;-36
2022/01/02 01:23:32;;;;;;;8.05;5.32;;;4.60;99.90;;;;;;5107416;28;20074;-36
2022/01/02 01:26:27;;;;;;;7.15;5.00;;;4.60;99.90;;;;;;5106902;28;20057;-37
2022/01/02 01:29:17;;;;;;;11.20;5.43;;;4.60;99.90;;;;;;5126602;28;20172;-38
2022/01/02 01:32:09;;;;;;;6.45;4.47;;;4.60;99.90;;;;;;5112508;28;25656;-37
2022/01/02 01:35:02;;;;;;;7.78;5.47;;;4.60;99.90;;;;;;5115553;28;20127;-37
2022/01/02 01:37:53;;;;;;;7.80;5.50;;;4.60;99.90;;;;;;5115440;28;20063;-37
2022/01/02 01:41:09;;;;;;;6.30;4.70;;;4.60;99.90;;;;;;5110490;28;20139;-37
2022/01/02 01:44:21;;;;;;;9.82;5.38;;;4.60;99.90;;;;;;5123914;28;20054;-37
2022/01/02 01:47:12;;;;;;;9.15;4.78;;;4.60;99.90;;;;;;5134602;28;20058;-37
2022/01/02 01:50:04;;;;;;;6.93;5.32;;;4.60;99.90;;;;;;5106432;28;20420;-37
2022/01/02 01:52:56;;;;;;;10.27;5.18;;;4.60;99.90;;;;;;5116917;28;20058;-37
2022/01/02 01:55:55;;;;;;;9.98;5.32;;;4.50;99.90;;;;;;5116141;28;20053;-37
2022/01/02 01:58:47;;;;;;;7.03;4.90;;;4.60;99.90;;;;;;5136111;28;21245;-36
2022/01/02 02:01:38;;;;;;;8.65;5.18;;;4.60;99.90;;;;;;5107104;28;20538;-37
2022/01/02 02:04:29;;;;;;;7.97;5.30;;;4.60;99.90;;;;;;5121822;28;20066;-37
2022/01/02 02:07:27;;;;;;;9.20;4.88;;;4.70;99.90;;;;;;5133167;28;20169;-37
2022/01/02 02:10:27;;;;;;;6.82;4.40;;;4.70;99.90;;;;;;5121409;28;20054;-37
2022/01/02 02:13:25;;;;;;;7.10;4.57;;;4.70;99.90;;;;;;5119392;28;20112;-37
2022/01/02 02:16:18;;;;;;;;;;;4.70;99.90;;;;;;5130301;28;20435;-37
2022/01/02 02:19:09;;;;;;;5.82;3.88;;;4.70;99.90;;;;;;5112343;28;20161;-37
2022/01/02 02:22:03;;;;;;;7.78;3.92;;;4.70;99.90;;;;;;5123794;28;20055;-37
2022/01/02 02:24:54;;;;;;;6.28;4.03;;;4.70;99.90;;;;;;5126716;28;20061;-36
2022/01/02 02:27:49;;;;;;;5.93;4.03;;;4.70;99.90;;;;;;5116775;28;20347;-39
2022/01/02 02:30:43;;;;;;;4.72;3.58;;;4.80;99.90;;;;;;5116036;28;20077;-37
2022/01/02 02:33:34;;;;;;;6.07;3.50;;;4.80;99.90;;;;;;5128775;28;20050;-37
2022/01/02 02:36:25;;;;;;;6.07;3.63;;;4.80;99.90;;;;;;5115038;28;20073;-37
2022/01/02 02:39:16;;;;;;;5.72;3.50;;;4.80;99.90;;;;;;5123120;28;20054;-37
2022/01/02 02:42:20;;;;;;;6.43;4.13;;;4.80;99.90;;;;;;5116693;28;20407;-37
2022/01/02 02:54:44;;;;;;;5.47;3.45;;;5.30;99.90;;;;;;5131211;28;20059;-37
2022/01/02 02:57:38;;;;;;;5.38;3.63;;;4.80;99.90;;;;;;5119983;28;20073;-37
2022/01/02 03:00:29;;;;;;;4.57;3.28;;;4.80;99.90;;;;;;5124273;28;20066;-38
2022/01/02 03:03:20;;;;;;;4.35;2.55;;;4.80;99.90;;;;;;5110019;28;20058;-37
2022/01/02 03:06:13;;;;;;;4.85;2.80;;;4.80;99.90;;;;;;5127074;28;20062;-37
2022/01/02 03:09:08;;;;;;;7.00;2.90;;;4.90;99.90;;;;;;5115755;28;20054;-37
2022/01/02 03:12:01;;;;;;;3.40;2.50;;;4.80;99.90;;;;;;5118121;28;20424;-37
2022/01/02 03:14:53;;;;;;;5.53;2.72;;;4.80;99.90;;;;;;5123559;28;20066;-37
2022/01/02 03:17:44;;;;;;;3.97;2.58;;;4.80;99.90;;;;;;5115623;28;20061;-37
2022/01/02 03:20:35;;;;;;;4.03;2.55;;;4.80;99.90;;;;;;5119856;28;20378;-37
2022/01/02 03:23:26;;;;;;;2.55;2.13;;;4.80;99.90;;;;;;5103372;28;20405;-37
2022/01/02 03:26:18;;;;;;;3.70;2.47;;;4.80;99.90;;;;;;5118154;28;20070;-37
2022/01/02 03:29:09;;;;;;;4.40;2.67;;;4.80;99.90;;;;;;5132930;28;20909;-37
2022/01/02 03:32:00;;;;;;;6.38;2.75;;;4.70;99.90;;;;;;5131532;28;20058;-37
2022/01/02 03:34:51;;;;;;;3.50;2.72;;;4.70;99.90;;;;;;5131068;28;20081;-37
2022/01/02 03:37:43;;;;;;;4.47;2.60;;;4.70;99.90;;;;;;5120487;28;20077;-37
2022/01/02 03:40:34;;;;;;;2.88;2.33;;;4.70;99.90;;;;;;5119803;28;20054;-37
2022/01/02 03:43:26;;;;;;;4.97;2.65;;;5.00;99.90;;;;;;5110963;28;20058;-37
2022/01/02 03:46:17;;;;;;;3.53;2.50;;;4.70;99.90;;;;;;5117969;28;20066;-37
2022/01/02 03:49:11;;;;;;;4.88;3.00;;;4.70;99.90;;;;;;5132159;28;20057;-37
2022/01/02 03:52:04;;;;;;;3.42;2.42;;;3.80;99.90;;;;;;5116818;28;20062;-37
2022/01/02 03:54:55;;;;;;;4.03;2.38;;;7.30;99.90;;;;;;5122030;28;20105;-38
2022/01/02 03:57:46;;;;;;;3.65;2.13;;;4.50;99.90;;;;;;5113534;28;20526;-37
2022/01/02 04:00:37;;;;;;;3.50;2.60;;;4.50;99.90;;;;;;5119119;28;20081;-38
2022/01/02 04:03:28;;;;;;;4.97;2.75;;;4.40;99.90;;;;;;5115865;28;20291;-37
2022/01/02 04:06:19;;;;;;;3.67;2.63;;;6.50;99.90;;;;;;5126835;28;20065;-37
2022/01/02 04:09:10;;;;;;;4.00;2.33;;;4.90;99.90;;;;;;5116523;28;20062;-38
2022/01/02 04:12:01;;;;;;;3.67;2.10;;;6.70;99.90;;;;;;5115442;28;20046;-38
2022/01/02 04:14:54;;;;;;;3.75;2.35;;;5.30;99.90;;;;;;5104290;28;20054;-37
2022/01/02 04:17:45;;;;;;;4.03;2.55;;;4.10;99.90;;;;;;5108269;28;20085;-36
2022/01/02 04:20:37;;;;;;;2.92;2.28;;;4.20;99.90;;;;;;5125639;28;20305;-37
2022/01/02 04:23:28;;;;;;;3.08;2.22;;;4.10;99.90;;;;;;5114216;28;20065;-36
2022/01/02 04:26:19;;;;;;;3.30;2.15;;;7.00;99.90;;;;;;5114297;28;20061;-36
2022/01/02 04:29:10;;;;;;;3.90;2.38;;;4.00;99.90;;;;;;5119474;28;20054;-36
2022/01/02 04:32:02;;;;;;;3.30;2.05;;;4.00;99.90;;;;;;5114287;28;20050;-37
2022/01/02 04:34:53;;;;;;;4.70;2.75;;;4.00;99.90;;;;;;5099886;28;20053;-37
2022/01/02 04:37:46;;;;;;;4.13;2.58;;;3.90;99.90;;;;;;5107675;28;20327;-36
2022/01/02 04:40:38;;;;;;;3.38;1.98;;;3.90;99.90;;;;;;5126771;28;20054;-37
2022/01/02 04:43:30;;;;;;;2.97;2.22;;;3.90;99.90;;;;;;5129410;28;20054;-37
2022/01/02 04:46:21;;;;;;;2.75;2.03;;;3.90;99.90;;;;;;5106649;28;20530;-37
2022/01/02 04:49:12;;;;;;;4.03;2.35;;;2.20;99.90;;;;;;5124328;28;20097;-36
2022/01/02 04:52:03;;;;;;;4.43;2.67;;;3.70;99.90;;;;;;5108757;28;20061;-37
2022/01/02 04:54:54;;;;;;;3.90;2.53;;;3.70;99.90;;;;;;5107596;28;20046;-37
2022/01/02 04:57:45;;;;;;;4.63;2.70;;;4.40;99.90;;;;;;5118160;28;20314;-36
2022/01/02 05:00:36;;;;;;;4.03;2.72;;;3.60;99.90;;;;;;5110385;28;20101;-36
2022/01/02 05:03:28;;;;;;;3.95;2.65;;;3.70;99.90;;;;;;5113446;28;20061;-36
2022/01/02 05:06:19;;;;;;;4.13;2.55;;;2.90;99.90;;;;;;5127073;28;20427;-35
2022/01/02 05:09:10;;;;;;;2.95;2.22;;;3.60;99.90;;;;;;5115128;28;20062;-36
2022/01/02 05:12:02;;;;;;;5.82;2.40;;;3.60;99.90;;;;;;5115900;28;20061;-37
2022/01/02 05:14:54;;;;;;;4.63;2.97;;;3.60;99.90;;;;;;5115826;28;20059;-38
2022/01/02 05:17:45;;;;;;;6.45;3.50;;;3.60;99.90;;;;;;5101174;28;20054;-37
2022/01/02 05:20:38;;;;;;;4.25;2.75;;;3.50;99.90;;;;;;5142274;28;20349;-37
2022/01/02 05:23:29;;;;;;;4.97;3.38;;;3.50;99.90;;;;;;5110715;28;20065;-37
2022/01/02 05:26:20;;;;;;;4.47;2.80;;;4.50;99.90;;;;;;5131593;28;20258;-36
2022/01/02 05:29:11;;;;;;;3.90;2.60;;;3.40;99.90;;;;;;5118937;28;20077;-35
2022/01/02 05:32:03;;;;;;;4.72;2.75;;;3.40;99.90;;;;;;5129055;28;20066;-37
2022/01/02 05:34:55;;;;;;;4.47;2.83;;;3.50;99.90;;;;;;5124614;28;20519;-36
2022/01/02 05:37:45;;;;;;;3.17;2.47;;;2.30;99.90;;;;;;5117293;28;20450;-37
2022/01/02 05:40:36;;;;;;;5.43;2.95;;;3.40;99.90;;;;;;5109039;28;20723;-36
2022/01/02 05:43:29;;;;;;;6.28;2.60;;;3.40;99.90;;;;;;5127220;28;20518;-37
2022/01/02 05:46:21;;;;;;;5.27;2.97;;;4.60;99.90;;;;;;5119182;28;20058;-37
2022/01/02 05:49:13;;;;;;;8.05;2.88;;;3.40;99.90;;;;;;5123130;28;20066;-36
2022/01/02 05:52:04;;;;;;;6.10;2.95;;;4.10;99.90;;;;;;5123409;28;20558;-36
2022/01/02 05:54:55;;;;;;;4.93;3.00;;;3.40;99.90;;;;;;5121102;28;20066;-37
2022/01/02 05:57:46;;;;;;;4.00;2.75;;;3.20;99.90;;;;;;5122783;28;20050;-37
2022/01/02 06:00:37;;;;;;;4.10;2.70;;;3.40;99.90;;;;;;5109791;28;20054;-37
2022/01/02 06:03:29;;;;;;;4.60;2.70;;;3.40;99.90;;;;;;5127442;28;20057;-37
2022/01/02 06:06:20;;;;;;;4.05;2.78;;;3.40;99.90;;;;;;5127248;28;20058;-37
2022/01/02 06:09:12;;;;;;;3.72;2.30;;;4.00;99.90;;;;;;5113995;28;20070;-36
2022/01/02 06:12:03;;;;;;;3.28;2.58;;;3.50;99.90;;;;;;5115938;28;20431;-36
2022/01/02 06:14:54;;;;;;;4.07;3.05;;;4.60;99.90;;;;;;5110070;28;20062;-36
2022/01/02 06:17:46;;;;;;;3.40;2.35;;;3.60;99.90;;;;;;5124219;28;20058;-36
2022/01/02 06:20:38;;;;;;;3.75;2.58;;;3.60;99.90;;;;;;5121268;28;20070;-37
2022/01/02 06:23:29;;;;;;;3.80;2.53;;;3.60;99.90;;;;;;5131250;28;20129;-36
2022/01/02 06:26:20;;;;;;;8.68;2.85;;;3.50;99.90;;;;;;5117557;28;20177;-36
2022/01/02 06:29:12;;;;;;;5.32;2.95;;;3.50;99.90;;;;;;5121170;28;22052;-37
2022/01/02 06:32:04;;;;;;;3.38;2.53;;;3.60;99.90;;;;;;5116381;28;21288;-37
2022/01/02 06:34:56;;;;;;;4.63;2.92;;;4.10;99.90;;;;;;5116244;28;20645;-37
2022/01/02 06:37:47;;;;;;;4.03;2.45;;;6.30;99.90;;;;;;5119845;28;20061;-36
2022/01/02 06:40:38;;;;;;;5.22;3.03;;;3.40;99.90;;;;;;5122829;28;20062;-36
2022/01/02 06:43:32;;;;;;;3.50;2.50;;;4.80;99.90;;;;;;5121733;28;20631;-36
2022/01/02 06:46:23;;;;;;;4.70;2.78;;;3.40;99.90;;;;;;5120602;28;20077;-36
2022/01/02 06:49:14;;;;;;;4.53;2.22;;;3.40;99.90;;;;;;5110697;28;20031;-36
2022/01/02 06:52:13;;;;;;;3.15;2.30;;;3.80;99.90;;;;;;5119041;28;20065;-36
2022/01/02 06:55:05;;;;;;;3.30;2.35;;;3.30;99.90;;;;;;5120640;28;20057;-36
2022/01/02 06:57:57;;;;;;;3.35;2.30;;;3.40;99.90;;;;;;5165775;23;20058;-30
2022/01/02 07:00:50;;;;;;;2.72;2.00;;;3.40;99.90;;;;;;5167008;28;20057;-31
2022/01/02 07:03:41;;;;;;;7.25;2.13;;;3.40;99.90;;;;;;5177997;28;20692;-31
2022/01/02 07:06:32;;;;;;;3.10;2.10;;;3.50;99.90;;;;;;5157617;28;20053;-31
2022/01/02 07:09:23;;;;;;;3.63;2.10;;;3.50;99.90;;;;;;5156518;28;20362;-31
2022/01/02 07:12:15;;;;;;;4.90;2.05;;;3.50;99.90;;;;;;5160231;28;20311;-31
2022/01/02 07:15:08;;;;;;;2.47;1.77;;;3.50;99.90;;;;;;5154065;28;20038;-31
2022/01/02 07:18:00;;;;;;;4.30;2.47;;;3.50;99.90;;;;;;5159478;28;20081;-31
2022/01/02 07:20:50;;;;;;;4.47;2.40;;;2.50;99.90;;;;;;5148358;28;20064;-31
2022/01/02 07:23:41;;;;;;;3.40;2.40;;;3.50;99.90;;;;;;5135615;28;20057;-31
2022/01/02 07:26:32;;;;;;;3.67;2.22;;;3.50;99.90;;;;;;5149807;28;20054;-31
2022/01/02 07:29:23;;;;;;;3.97;2.55;;;3.50;99.90;;;;;;5142762;28;20350;-31
2022/01/02 07:32:15;;;;;;;5.65;3.67;;;3.60;99.90;;;;;;5144260;28;20058;-31
2022/01/02 07:35:07;;;;;;;5.15;2.95;;;4.60;99.90;;;;;;5150739;28;20243;-31
2022/01/02 07:37:58;;;;;;;4.85;3.33;;;2.90;99.90;;;;;;5155236;28;20065;-31
2022/01/02 07:40:49;;;;;;;4.25;2.28;;;3.70;99.90;;;;;;5154424;28;20073;-31
2022/01/02 07:43:40;;;;;;;4.28;2.72;;;5.20;99.90;;;;;;5156003;28;20061;-32
2022/01/02 07:46:32;;;;;;;4.43;2.58;;;3.70;99.90;;;;;;5146351;28;20616;-31
2022/01/02 07:49:23;;;;;;;2.65;2.10;;;4.30;99.90;;;;;;5158552;28;20057;-31
2022/01/02 07:52:14;;;;;;;3.60;2.20;;;3.90;99.90;;;;;;5146383;28;20053;-31
2022/01/02 07:55:06;;;;;;;4.50;2.40;;;3.90;99.90;;;;;;5156410;28;20069;-31
2022/01/02 07:57:57;;;;;;;2.33;1.85;;;3.90;99.90;;;;;;5148105;28;20057;-32
2022/01/02 08:00:50;;;;;;;3.03;2.15;;;;;;;;;;5142458;28;20069;-31
2022/01/02 08:03:41;;;;;;;5.05;2.38;;;5.10;99.90;;;;;;5155232;28;20057;-31
2022/01/02 08:06:32;;;;;;;3.22;1.83;;;4.10;99.90;;;;;;5143570;28;20056;-33
2022/01/02 08:09:23;;;;;;;2.17;1.67;;;5.40;99.90;;;;;;5154534;28;20045;-32
2022/01/02 08:12:14;;;;;;;2.40;1.80;;;4.20;99.90;;;;;;5149469;28;20061;-32
2022/01/02 08:15:05;;;;;;;3.38;1.83;;;4.40;99.90;;;;;;5149797;28;20063;-31
2022/01/02 08:17:56;;;;;;;4.22;1.80;;;6.00;99.90;;;;;;5153577;28;20244;-30
2022/01/02 08:20:47;;;;;;;3.33;2.50;;;7.40;99.90;;;;;;5162131;28;20052;-33
2022/01/02 08:23:37;;;;;;;2.55;1.80;;;7.50;99.90;;;;;;5156177;28;20061;-31
2022/01/02 08:26:45;;;;;;;3.83;2.45;;;3.90;99.90;;;;;;5153883;28;20053;-32
2022/01/02 08:29:36;;;;;;;3.53;2.80;;;3.10;99.90;;;;;;5143184;28;20057;-32
2022/01/02 08:32:27;;;;;;;6.55;2.40;;;4.80;99.90;;;;;;5139558;28;20830;-31
2022/01/02 08:35:18;;;;;;;4.68;2.80;;;5.10;99.90;;;;;;5133109;28;20788;-31
2022/01/02 08:38:10;;;;;;;3.25;2.30;;;3.90;99.90;;;;;;5142914;28;20065;-32
2022/01/02 08:41:01;;;;;;;4.50;2.10;;;5.20;99.90;;;;;;5158871;28;20056;-32
2022/01/02 08:43:52;;;;;;;2.80;2.03;;;3.40;99.90;;;;;;5151672;28;20060;-32
2022/01/02 08:46:42;;;;;;;2.45;1.90;;;5.40;99.90;;;;;;5155464;28;20057;-30
2022/01/02 08:49:33;;;;;;;4.45;1.90;;;5.40;99.90;;;;;;5158080;28;20049;-31
2022/01/02 08:52:25;;;;;;;3.85;2.10;;;4.80;99.90;;;;;;5113319;28;20064;-32
2022/01/02 08:55:16;;;;;;;2.75;1.70;;;5.50;99.90;;;;;;5118480;28;20120;-32
2022/01/02 08:58:08;;;;;;;4.28;2.28;;;7.80;99.90;;;;;;5136777;28;20060;-31
2022/01/02 09:01:00;;;;;;;8.05;2.47;;;6.80;99.90;;;;;;5131062;28;20049;-32
2022/01/02 09:03:51;;;;;;;5.55;3.08;;;8.00;99.90;;;;;;5141217;28;20069;-31
2022/01/02 09:06:43;;;;;;;8.18;3.13;;;6.00;99.90;;;;;;5154835;28;20765;-30
2022/01/02 09:09:34;;;;;;;4.93;2.83;;;6.10;99.90;;;;;;5133030;28;20061;-33
2022/01/02 09:12:25;;;;;;;6.20;3.53;;;5.50;99.90;;;;;;5138996;28;20053;-32
2022/01/02 09:15:16;;;;;;;5.13;3.10;;;7.70;99.90;;;;;;5141665;28;20076;-32
2022/01/02 09:18:08;;;;;;;6.90;2.92;;;6.40;99.90;;;;;;5153986;28;20053;-32
2022/01/02 09:21:00;;;;;;;4.55;3.00;;;7.00;99.90;;;;;;5143140;28;20061;-30
2022/01/02 09:23:51;;;;;;;5.65;3.53;;;6.40;99.90;;;;;;5150594;28;20061;-31
2022/01/02 09:26:42;;;;;;;6.28;3.38;;;8.00;99.90;;;;;;5152302;28;20061;-31
2022/01/02 09:29:32;;;;;;;4.97;2.92;;;6.80;99.90;;;;;;5136440;28;20053;-32
2022/01/02 09:32:24;;;;;;;4.18;2.78;;;6.50;99.90;;;;;;5122455;28;21564;-31
2022/01/02 11:26:14;;;;;;;1.17;1.05;;;12.60;79.40;;;;;;5175790;28;20045;-31
2022/01/02 11:29:06;;;;;;;1.23;0.90;;;10.90;76.00;;;;;;5146300;28;20057;-32
2022/01/02 11:31:43;;;;;;;;;;;11.00;78.40;;;;;;5138620;28;20235;-31
2022/01/02 11:34:28;;;;;;;1.25;1.10;;;11.10;76.40;;;;;;5167706;28;20019;-31
2022/01/02 11:37:11;;;;;;;1.77;1.15;;;11.20;74.90;;;;;;5134193;28;20052;-31
2022/01/02 11:39:54;;;;;;;1.55;0.90;;;11.30;75.40;;;;;;5158049;28;20292;-32
2022/01/02 11:42:37;;;;;;;1.20;0.77;;;11.50;75.80;;;;;;5160322;28;20230;-31
2022/01/02 11:45:33;;;;;;;1.83;1.05;;;11.70;73.90;;;;;;5138491;28;20974;-31
2022/01/02 11:48:26;;;;;;;1.55;0.90;;;11.80;73.00;;;;;;5157467;28;20045;-31
2022/01/02 11:50:58;;;;;;;1.50;0.95;;;11.90;71.00;;;;;;5168533;28;20041;-31
2022/01/02 11:53:35;;;;;;;0.93;0.77;;;11.90;71.30;;;;;;5159021;28;20045;-31
2022/01/02 11:56:31;;;;;;;1.27;0.85;;;12.00;71.20;;;;;;5158010;28;20406;-31
2022/01/02 11:59:04;;;;;;;1.92;1.33;;;12.10;68.90;;;;;;5155186;28;20093;-33
2022/01/02 12:01:46;;;;;;;2.08;1.17;;;12.10;69.70;;;;;;5161882;28;20050;-31
2022/01/02 12:04:39;;;;;;;2.00;1.33;;;12.10;69.40;;;;;;5153074;28;22032;-31
2022/01/02 12:07:40;;;;;;;1.77;1.30;;;12.10;69.70;;;;;;5159557;28;20045;-31
2022/01/02 12:10:15;;;;;;;2.08;1.48;;;12.10;67.20;;;;;;5159606;28;20054;-31
2022/01/02 12:12:57;;;;;;;4.10;1.02;;;12.20;68.40;;;;;;5155416;28;20049;-31
2022/01/02 12:15:33;;;;;;;1.80;0.95;;;12.20;67.50;;;;;;5151263;28;20046;-31
2022/01/02 12:18:29;;;;;;;1.50;1.00;;;12.20;68.30;;;;;;5143217;28;20419;-32
2022/01/02 12:21:04;;;;;;;2.03;1.30;;;12.20;67.10;;;;;;5160949;28;20046;-33
2022/01/02 12:23:44;;;;;;;1.30;0.90;;;12.10;67.50;;;;;;5148174;28;20049;-31
2022/01/02 12:26:21;;;;;;;1.27;1.17;;;12.10;68.60;;;;;;5146434;28;20050;-32
2022/01/02 12:29:05;;;;;;;2.58;1.10;;;12.10;68.50;;;;;;5155312;28;20060;-32
2022/01/02 12:31:43;;;;;;;1.98;1.10;;;12.10;68.00;;;;;;5166560;28;20068;-32
2022/01/02 12:34:19;;;;;;;2.05;1.00;;;12.10;67.40;;;;;;5129361;28;22209;-32
2022/01/02 12:36:52;;;;;;;1.42;1.00;;;12.10;68.30;;;;;;5128905;28;20256;-32
2022/01/02 12:39:33;;;;;;;2.85;1.38;;;12.00;68.70;;;;;;5142401;28;20053;-32
2022/01/02 12:42:14;;;;;;;1.33;1.13;;;11.90;68.60;;;;;;5149236;28;20050;-31
2022/01/02 12:44:51;;;;;;;5.10;1.27;;;12.00;69.30;;;;;;5156126;28;20056;-32
2022/01/02 12:47:25;;;;;;;1.58;1.08;;;11.90;69.10;;;;;;5172880;28;20056;-32
2022/01/02 12:49:57;;;;;;;;;;;11.90;70.00;;;;;;5177345;28;20406;-32
2022/01/02 12:52:30;;;;;;;5.07;1.20;;;11.90;68.90;;;;;;5178547;28;19932;-32
2022/01/02 12:55:08;;;;;;;2.03;1.10;;;12.00;68.30;;;;;;5177127;28;20084;-32
2022/01/02 13:00:43;;;;;;;1.02;0.90;;;12.10;67.00;;;;;;5172126;28;20493;-36
2022/01/02 13:03:16;;;;;;;0.90;0.80;;;12.20;67.20;;;;;;5185165;28;20053;-36
2022/01/02 13:05:52;;;;;;;2.10;1.00;;;12.30;66.70;;;;;;5167033;28;20033;-36
2022/01/02 13:08:26;;;;;;;1.25;0.95;;;12.30;65.70;;;;;;5169467;28;20053;-37
2022/01/02 13:11:09;;;;;;;1.38;0.95;;;12.50;66.00;;;;;;5170974;28;20046;-36
2022/01/02 13:13:41;;;;;;;1.33;0.83;;;12.60;64.00;;;;;;5173498;28;20521;-36
2022/01/02 13:16:14;;;;;;;2.95;1.95;;;12.70;64.20;;;;;;5168699;28;21122;-36
2022/01/02 13:18:47;;;;;;;1.17;0.80;;;12.70;64.40;;;;;;5174341;28;20057;-37
2022/01/02 13:21:19;;;;;;;1.02;0.82;;;12.70;63.60;;;;;;5155728;28;20060;-36
2022/01/02 13:23:52;;;;;;;1.23;0.90;;;12.70;64.10;;;;;;5163525;28;20052;-36
2022/01/02 13:26:24;;;;;;;3.15;0.80;;;12.60;64.00;;;;;;5173024;28;20053;-37
2022/01/02 13:28:59;;;;;;;0.95;0.70;;;12.70;63.50;;;;;;5176115;28;20056;-36
2022/01/02 13:31:32;;;;;;;4.50;0.93;;;12.70;63.10;;;;;;5169432;28;20046;-36
2022/01/02 13:34:07;;;;;;;1.52;0.70;;;12.70;63.70;;;;;;5153610;28;20046;-36
2022/01/02 13:36:57;;;;;;;1.40;1.00;;;12.70;62.80;;;;;;5160055;28;20050;-36
2022/01/02 13:39:43;;;;;;;1.77;0.90;;;12.80;60.90;;;;;;5175829;28;24050;-36
2022/01/02 13:42:17;;;;;;;1.08;0.98;;;12.80;61.80;;;;;;5168131;28;20521;-35
2022/01/02 13:44:50;;;;;;;1.20;0.80;;;12.80;62.50;;;;;;5168717;28;20033;-36
2022/01/02 13:47:33;;;;;;;1.05;0.93;;;12.80;62.80;;;;;;5176140;28;20057;-35
2022/01/02 13:50:07;;;;;;;2.22;1.25;;;12.80;61.40;;;;;;5161174;28;20053;-35
2022/01/02 13:52:53;;;;;;;;;;;12.80;61.50;;;;;;5176951;28;20104;-36
2022/01/02 13:55:34;;;;;;;0.98;0.70;;;12.80;61.50;;;;;;5178076;28;19932;-36
2022/01/02 13:58:28;;;;;;;5.43;2.38;;;12.80;62.40;;;;;;5168731;28;20057;-36
2022/01/02 14:01:06;;;;;;;7.97;2.22;;;12.80;61.10;;;;;;5177997;28;20486;-36
2022/01/02 14:03:40;;;;;;;3.03;1.42;;;12.80;61.80;;;;;;5176755;28;20057;-36
2022/01/02 14:06:37;;;;;;;3.55;1.40;;;12.80;62.20;;;;;;5180442;28;20045;-35
2022/01/02 14:09:18;;;;;;;1.00;0.90;;;12.80;62.00;;;;;;5179298;28;20049;-37
2022/01/02 14:11:53;;;;;;;3.05;1.35;;;12.80;62.50;;;;;;5177450;28;20486;-37
2022/01/02 14:14:48;;;;;;;2.55;0.90;;;12.80;62.60;;;;;;5174183;28;20557;-45
2022/01/02 14:17:34;;;;;;;1.48;0.90;;;12.70;62.30;;;;;;5176745;28;20041;-37
2022/01/02 14:20:06;;;;;;;1.45;1.20;;;12.80;62.50;;;;;;5164183;28;20048;-35
2022/01/02 14:22:42;;;;;;;2.78;1.27;;;12.80;61.80;;;;;;5181550;28;20501;-37
2022/01/02 14:25:16;;;;;;;2.08;0.88;;;12.80;62.10;;;;;;4471561;28;10000223;-36
2022/01/02 14:27:52;;;;;;;2.38;1.15;;;12.80;61.60;;;;;;5180268;28;20041;-37
2022/01/02 14:30:24;;;;;;;1.85;1.00;;;12.80;61.50;;;;;;5173849;28;20445;-36
2022/01/02 14:32:57;;;;;;;1.70;1.10;;;12.90;60.60;;;;;;5177284;28;20037;-36
2022/01/02 14:35:29;;;;;;;2.20;1.05;;;13.00;60.30;;;;;;5177901;28;20056;-37
2022/01/02 14:38:02;;;;;;;2.10;1.20;;;13.00;61.70;;;;;;5180719;28;20248;-37
2022/01/02 14:40:34;;;;;;;2.53;1.30;;;13.00;61.00;;;;;;5183291;28;20420;-37
2022/01/02 14:43:07;;;;;;;2.15;1.52;;;13.00;61.40;;;;;;5177571;28;20045;-38
2022/01/02 14:45:40;;;;;;;2.28;1.63;;;13.00;61.50;;;;;;5175708;28;20041;-36
2022/01/02 14:48:12;;;;;;;10.98;2.83;;;13.00;62.70;;;;;;5166325;28;20045;-35
2022/01/02 14:50:45;;;;;;;2.33;1.50;;;13.10;61.90;;;;;;5160098;28;20439;-37
2022/01/02 14:53:17;;;;;;;3.10;1.60;;;13.00;61.40;;;;;;5165542;28;20052;-37
2022/01/02 14:55:50;;;;;;;5.88;1.88;;;13.10;62.00;;;;;;5169356;28;20850;-35
2022/01/02 14:58:22;;;;;;;4.25;1.60;;;13.00;62.90;;;;;;5181148;28;20041;-36
2022/01/02 15:00:56;;;;;;;5.60;1.60;;;13.00;63.00;;;;;;5194676;28;20465;-36
2022/01/02 15:03:29;;;;;;;4.80;2.38;;;13.00;62.40;;;;;;5196969;28;20632;-37
2022/01/02 15:06:03;;;;;;;9.73;4.72;;;13.00;63.20;;;;;;5180193;28;20056;-35
2022/01/02 15:08:37;;;;;;;6.88;3.58;;;13.00;63.30;;;;;;5201331;28;20056;-37
2022/01/02 15:11:09;;;;;;;6.30;3.45;;;13.00;63.00;;;;;;5185923;28;20053;-37
2022/01/02 15:13:42;;;;;;;5.80;3.45;;;13.00;62.20;;;;;;5198679;28;20466;-37
2022/01/02 15:16:15;;;;;;;2.97;1.95;;;13.00;62.40;;;;;;5192037;28;20044;-37
2022/01/02 15:18:48;;;;;;;7.30;2.08;;;13.00;64.00;;;;;;5199792;28;20068;-36
2022/01/02 15:21:21;;;;;;;4.63;1.77;;;12.90;62.80;;;;;;5202383;28;20045;-36
2022/01/02 15:23:54;;;;;;;3.55;1.90;;;12.90;63.70;;;;;;5193108;28;20041;-36
2022/01/02 15:26:27;;;;;;;3.92;1.85;;;12.90;62.50;;;;;;5164493;28;20057;-35
2022/01/02 15:29:01;;;;;;;2.15;1.67;;;12.90;62.30;;;;;;5199302;28;20384;-37
2022/01/02 15:31:34;;;;;;;3.33;1.60;;;12.90;62.20;;;;;;5198823;28;21320;-37
2022/01/02 15:34:07;;;;;;;3.07;1.70;;;12.90;61.80;;;;;;5200747;28;20619;-35
2022/01/02 15:36:39;;;;;;;3.40;2.07;;;12.90;61.90;;;;;;5201287;28;20044;-37
2022/01/02 15:39:12;;;;;;;5.18;2.10;;;12.90;61.70;;;;;;5181380;28;20295;-36
2022/01/02 15:41:45;;;;;;;3.72;1.63;;;12.90;61.90;;;;;;5199083;28;20049;-36
2022/01/02 15:44:17;;;;;;;2.47;1.67;;;12.80;62.90;;;;;;5180603;28;20270;-41
2022/01/02 15:46:53;;;;;;;3.45;2.10;;;12.80;63.30;;;;;;5177531;28;20048;-37
2022/01/02 15:49:26;;;;;;;3.72;1.80;;;12.70;64.30;;;;;;5201102;28;20052;-37
2022/01/02 15:51:59;;;;;;;3.88;2.42;;;12.70;63.90;;;;;;5199110;28;20325;-37
2022/01/02 15:54:34;;;;;;;2.30;1.90;;;12.70;63.50;;;;;;5194903;28;20049;-36
2022/01/02 15:57:06;;;;;;;3.13;1.90;;;12.70;63.90;;;;;;5173243;28;20041;-37
2022/01/02 15:59:39;;;;;;;6.10;1.90;;;12.70;63.60;;;;;;5192188;28;20048;-36
2022/01/02 16:02:11;;;;;;;3.88;2.38;;;12.70;64.70;;;;;;5178030;28;20049;-41
2022/01/02 16:04:44;;;;;;;3.08;2.10;;;12.70;63.70;;;;;;5198349;28;20543;-36
2022/01/02 16:07:17;;;;;;;5.68;2.22;;;12.70;64.70;;;;;;5193910;28;20437;-35
2022/01/02 16:09:49;;;;;;;4.55;2.50;;;12.70;65.00;;;;;;5196555;28;20048;-36
2022/01/02 16:12:21;;;;;;;6.75;2.90;;;12.70;64.50;;;;;;5197577;28;20043;-36
2022/01/02 16:14:55;;;;;;;4.00;1.80;;;12.70;64.30;;;;;;5181570;28;20048;-36
2022/01/02 16:17:27;;;;;;;3.03;1.80;;;12.70;64.40;;;;;;5201053;28;20147;-35
2022/01/02 16:20:00;;;;;;;4.80;2.20;;;12.70;65.00;;;;;;5192716;28;20606;-35
2022/01/02 16:22:32;;;;;;;4.28;2.50;;;12.60;64.10;;;;;;5189163;28;20056;-36
2022/01/02 16:25:05;;;;;;;7.30;2.50;;;12.60;64.10;;;;;;5199179;28;20064;-37
2022/01/02 16:27:38;;;;;;;5.95;2.63;;;12.60;63.90;;;;;;5193421;28;20067;-36
2022/01/02 16:30:11;;;;;;;8.43;4.72;;;12.60;63.80;;;;;;5179976;28;20933;-36
2022/01/02 16:32:44;;;;;;;3.93;2.47;;;12.60;63.90;;;;;;5199267;28;20485;-37
2022/01/02 16:35:16;;;;;;;7.22;3.47;;;12.60;64.10;;;;;;5188236;28;20429;-37
2022/01/02 16:37:48;;;;;;;9.27;3.67;;;12.60;64.10;;;;;;5188307;28;20064;-35